createdAt,value
2023-04-21T00:01:08.597Z,100151.53
2023-04-21T00:03:38.621Z,100146.13
2023-04-21T00:06:12.468Z,100147.84
2023-04-21T00:08:40.724Z,100153.00
2023-04-21T00:11:08.554Z,100142.63
2023-04-21T00:13:36.720Z,100147.63
2023-04-21T00:16:04.157Z,100144.91
2023-04-21T00:18:31.788Z,100144.72
2023-04-21T00:20:58.863Z,100145.50
2023-04-21T00:23:25.933Z,100130.56
2023-04-21T00:25:53.669Z,100149.00
2023-04-21T00:28:20.758Z,100139.34
2023-04-21T00:30:47.863Z,100144.41
2023-04-21T00:33:15.084Z,100103.97
2023-04-21T00:35:42.149Z,100127.75
2023-04-21T00:38:09.204Z,100112.78
2023-04-21T00:40:36.668Z,100122.44
2023-04-21T00:43:08.218Z,100126.91
2023-04-21T00:45:36.202Z,100127.66
2023-04-21T00:48:03.418Z,100132.81
2023-04-21T00:50:30.591Z,100111.88
2023-04-21T00:52:59.572Z,100111.91
2023-04-21T00:55:26.961Z,100124.97
2023-04-21T00:57:56.477Z,100105.66
2023-04-21T01:00:28.127Z,100122.19
2023-04-21T01:02:56.998Z,100114.38
2023-04-21T01:05:24.111Z,100116.34
2023-04-21T01:07:51.254Z,100113.63
2023-04-21T01:10:18.356Z,100112.59
2023-04-21T01:12:47.832Z,100099.44
2023-04-21T01:15:17.501Z,100107.25
2023-04-21T01:17:45.419Z,100081.75
2023-04-21T01:20:15.410Z,100096.44
2023-04-21T01:22:44.755Z,100101.72
2023-04-21T01:25:12.057Z,100108.56
2023-04-21T01:27:39.124Z,100109.22
2023-04-21T01:30:09.045Z,100098.63
2023-04-21T01:32:36.408Z,100100.25
2023-04-21T01:35:03.849Z,100081.16
2023-04-21T01:37:34.053Z,100103.03
2023-04-21T01:40:05.469Z,100103.78
2023-04-21T01:42:35.784Z,100102.94
2023-04-21T01:45:03.516Z,100082.78
2023-04-21T01:47:33.131Z,100087.78
2023-04-21T01:50:00.359Z,100092.81
2023-04-21T01:52:27.387Z,100099.41
2023-04-21T01:54:55.294Z,100086.16
2023-04-21T01:57:22.321Z,100098.97
2023-04-21T01:59:51.082Z,100098.09
2023-04-21T02:02:18.274Z,100066.25
2023-04-21T02:04:45.364Z,100092.56
2023-04-21T02:07:12.385Z,100094.22
2023-04-21T02:09:41.078Z,100093.34
2023-04-21T02:12:08.259Z,100090.63
2023-04-21T02:14:37.616Z,99944.84
2023-04-21T02:17:07.992Z,100069.31
2023-04-21T02:19:35.127Z,100098.06
2023-04-21T02:22:02.195Z,100036.47
2023-04-21T02:24:29.211Z,100092.44
2023-04-21T02:26:58.678Z,100097.69
2023-04-21T02:29:28.858Z,100096.00
2023-04-21T02:32:03.119Z,100088.84
2023-04-21T02:34:38.583Z,100100.41
2023-04-21T02:37:06.497Z,100102.97
2023-04-21T02:39:33.646Z,100107.19
2023-04-21T02:42:01.874Z,100103.69
2023-04-21T02:44:28.959Z,100103.75
2023-04-21T02:46:56.052Z,100087.22
2023-04-21T02:49:23.276Z,100105.59
2023-04-21T02:51:50.598Z,100091.56
2023-04-21T02:54:17.664Z,100100.41
2023-04-21T02:56:44.846Z,100094.47
2023-04-21T02:59:16.711Z,100064.56
2023-04-21T03:01:44.053Z,100089.22
2023-04-21T03:04:11.170Z,100090.19
2023-04-21T03:06:38.810Z,100104.41
2023-04-21T03:09:06.201Z,100102.69
2023-04-21T03:11:33.338Z,100102.44
2023-04-21T03:14:00.440Z,100099.63
2023-04-21T03:16:28.144Z,100072.13
2023-04-21T03:18:55.563Z,100107.56
2023-04-21T03:21:22.647Z,100120.00
2023-04-21T03:23:49.685Z,100106.56
2023-04-21T03:26:16.937Z,100112.81
2023-04-21T03:28:43.930Z,100110.34
2023-04-21T03:31:11.038Z,100065.75
2023-04-21T03:33:38.121Z,100113.31
2023-04-21T03:36:05.453Z,100097.63
2023-04-21T03:38:32.463Z,100102.28
2023-04-21T03:40:59.472Z,100114.94
2023-04-21T03:43:26.909Z,100124.41
2023-04-21T03:45:53.991Z,100110.31
2023-04-21T03:48:21.262Z,100115.25
2023-04-21T03:50:48.356Z,100103.50
2023-04-21T03:53:15.375Z,100110.34
2023-04-21T03:55:42.329Z,100089.75
2023-04-21T03:58:09.333Z,100075.25
2023-04-21T04:00:36.428Z,100105.28
2023-04-21T04:03:03.639Z,100090.53
2023-04-21T04:05:31.161Z,100107.34
2023-04-21T04:07:58.331Z,100100.44
2023-04-21T04:10:25.383Z,100105.59
2023-04-21T04:12:52.518Z,100096.88
2023-04-21T04:15:20.224Z,100092.50
2023-04-21T04:17:47.667Z,100107.72
2023-04-21T04:20:15.326Z,100097.94
2023-04-21T04:22:42.543Z,100095.91
2023-04-21T04:25:09.827Z,100094.63
2023-04-21T04:27:37.072Z,100080.94
2023-04-21T04:30:06.021Z,100093.25
2023-04-21T04:32:34.225Z,100098.28
2023-04-21T04:35:01.401Z,100078.84
2023-04-21T04:37:29.348Z,100088.41
2023-04-21T04:39:59.781Z,100084.88
2023-04-21T04:42:27.028Z,100103.41
2023-04-21T04:44:54.550Z,100098.44
2023-04-21T04:47:21.924Z,100102.06
2023-04-21T04:49:49.290Z,100100.38
2023-04-21T04:52:16.361Z,100104.81
2023-04-21T04:54:43.370Z,100061.38
2023-04-21T04:57:10.553Z,100089.44
2023-04-21T04:59:37.861Z,100090.41
2023-04-21T05:02:05.014Z,100080.84
2023-04-21T05:04:32.518Z,100082.66
2023-04-21T05:06:59.639Z,100059.91
2023-04-21T05:09:26.895Z,100056.41
2023-04-21T05:11:54.418Z,100065.16
2023-04-21T05:14:21.667Z,100061.72
2023-04-21T05:16:48.886Z,100071.44
2023-04-21T05:19:18.087Z,100075.84
2023-04-21T05:21:46.012Z,100075.84
2023-04-21T05:24:13.144Z,100071.47
2023-04-21T05:26:40.190Z,100061.91
2023-04-21T05:29:07.238Z,100074.13
2023-04-21T05:31:35.005Z,100071.50
2023-04-21T05:34:02.295Z,100065.41
2023-04-21T05:36:30.610Z,100011.34
2023-04-21T05:38:57.780Z,100054.88
2023-04-21T05:41:24.888Z,100056.50
2023-04-21T05:43:51.954Z,100063.31
2023-04-21T05:46:21.613Z,100016.31
2023-04-21T05:48:48.978Z,100050.25
2023-04-21T05:51:16.222Z,100060.69
2023-04-21T05:53:44.759Z,100064.97
2023-04-21T05:56:13.030Z,100039.63
2023-04-21T05:58:40.278Z,100059.56
2023-04-21T06:01:07.954Z,100052.41
2023-04-21T06:03:35.160Z,100049.75
2023-04-21T06:06:04.918Z,100051.22
2023-04-21T06:08:32.711Z,100043.06
2023-04-21T06:10:59.828Z,100051.75
2023-04-21T06:13:28.062Z,100050.16
2023-04-21T06:15:55.612Z,100033.69
2023-04-21T06:18:24.239Z,100044.31
2023-04-21T06:20:55.478Z,100032.81
2023-04-21T06:23:22.735Z,100037.22
2023-04-21T06:26:05.161Z,100012.22
2023-04-21T06:28:33.224Z,100004.84
2023-04-21T06:31:01.723Z,100020.03
2023-04-21T06:33:29.990Z,100039.50
2023-04-21T06:35:57.077Z,100047.22
2023-04-21T06:38:24.086Z,100037.16
2023-04-21T06:40:51.339Z,100033.25
2023-04-21T06:43:18.322Z,100038.84
2023-04-21T06:45:45.393Z,100019.69
2023-04-21T06:48:12.600Z,100030.13
2023-04-21T06:50:39.966Z,100023.03
2023-04-21T06:53:07.075Z,100014.19
2023-04-21T06:55:34.199Z,99943.53
2023-04-21T06:58:01.364Z,100013.38
2023-04-21T07:00:28.722Z,100005.38
2023-04-21T07:02:55.855Z,100027.81
2023-04-21T07:05:23.051Z,100015.81
2023-04-21T07:07:50.157Z,100006.06
2023-04-21T07:10:20.036Z,99995.28
2023-04-21T07:12:47.521Z,100009.72
2023-04-21T07:15:14.527Z,100008.94
2023-04-21T07:17:41.584Z,100007.84
2023-04-21T07:20:09.248Z,100015.22
2023-04-21T07:22:36.803Z,100011.78
2023-04-21T07:25:06.558Z,100011.47
2023-04-21T07:27:34.845Z,100001.47
2023-04-21T07:30:01.947Z,99999.25
2023-04-21T07:32:31.618Z,99999.97
2023-04-21T07:34:58.876Z,99992.47
2023-04-21T07:37:27.241Z,100004.22
2023-04-21T07:39:54.264Z,99990.19
2023-04-21T07:42:21.403Z,99993.50
2023-04-21T07:44:49.113Z,99999.50
2023-04-21T07:47:16.706Z,99994.25
2023-04-21T07:49:43.835Z,99978.00
2023-04-21T07:52:10.886Z,99976.50
2023-04-21T07:54:37.870Z,99981.22
2023-04-21T07:57:04.932Z,99957.19
2023-04-21T07:59:32.005Z,99963.41
2023-04-21T08:01:59.117Z,99974.38
2023-04-21T08:04:26.794Z,99971.06
2023-04-21T08:06:54.510Z,99936.28
2023-04-21T08:09:21.830Z,99961.81
2023-04-21T08:11:49.067Z,99941.66
2023-04-21T08:14:16.409Z,99946.72
2023-04-21T08:16:43.666Z,99933.66
2023-04-21T08:19:10.959Z,99941.97
2023-04-21T08:21:37.975Z,99949.00
2023-04-21T08:24:05.399Z,99942.66
2023-04-21T08:26:34.006Z,99951.00
2023-04-21T08:29:04.035Z,99951.69
2023-04-21T08:31:31.785Z,99941.50
2023-04-21T08:34:02.739Z,99949.84
2023-04-21T08:36:31.991Z,99937.63
2023-04-21T08:38:59.340Z,99944.41
2023-04-21T08:41:26.842Z,99936.31
2023-04-21T08:43:53.935Z,99928.22
2023-04-21T08:46:21.944Z,99927.97
2023-04-21T08:48:49.361Z,99915.66
2023-04-21T08:51:22.744Z,99918.59
2023-04-21T08:53:50.450Z,99912.03
2023-04-21T08:56:17.645Z,99907.72
2023-04-21T08:58:44.757Z,99910.09
2023-04-21T09:01:12.335Z,99868.13
2023-04-21T09:03:39.618Z,99906.91
2023-04-21T09:06:09.414Z,99894.81
2023-04-21T09:08:43.818Z,99899.59
2023-04-21T09:11:14.586Z,99878.09
2023-04-21T09:13:43.978Z,99880.97
2023-04-21T09:16:22.587Z,99894.03
2023-04-21T09:18:50.402Z,99877.28
2023-04-21T09:21:19.809Z,99889.91
2023-04-21T09:23:51.962Z,99873.47
2023-04-21T09:26:24.132Z,99870.38
2023-04-21T09:28:52.401Z,99870.59
2023-04-21T09:31:22.064Z,99860.66
2023-04-21T09:33:58.345Z,99870.88
2023-04-21T09:36:29.487Z,99862.75
2023-04-21T09:39:20.697Z,99853.97
2023-04-21T09:41:45.758Z,99857.53
2023-04-21T09:44:12.859Z,99852.63
2023-04-21T09:46:44.721Z,99811.44
2023-04-21T09:49:16.950Z,99853.97
2023-04-21T09:52:10.357Z,99839.53
2023-04-21T09:54:33.662Z,99855.56
2023-04-21T09:57:03.825Z,99836.25
2023-04-21T09:59:40.976Z,99830.13
2023-04-21T10:02:09.898Z,99840.44
2023-04-21T10:04:39.014Z,99840.66
2023-04-21T10:07:07.191Z,99822.84
2023-04-21T10:09:41.812Z,99836.69
2023-04-21T10:12:10.469Z,99815.66
2023-04-21T10:14:37.614Z,99783.59
2023-04-21T10:17:06.630Z,99822.44
2023-04-21T10:19:39.675Z,99823.91
2023-04-21T10:22:09.099Z,99793.88
2023-04-21T10:24:40.536Z,99819.16
2023-04-21T10:27:12.793Z,99802.59
2023-04-21T10:29:52.787Z,99797.56
2023-04-21T10:32:55.215Z,99791.69
2023-04-21T10:35:23.464Z,99812.72
2023-04-21T10:37:54.370Z,99807.53
2023-04-21T10:40:43.178Z,99806.41
2023-04-21T10:43:51.109Z,99807.81
2023-04-21T10:46:38.093Z,99796.59
2023-04-21T10:49:31.587Z,99795.50
2023-04-21T10:51:59.357Z,99790.34
2023-04-21T10:54:28.419Z,99780.31
2023-04-21T10:56:59.448Z,99791.50
2023-04-21T10:59:29.319Z,99790.19
2023-04-21T11:01:57.266Z,99776.19
2023-04-21T11:04:24.877Z,99785.22
2023-04-21T11:07:13.034Z,99778.59
2023-04-21T11:09:41.861Z,99774.81
2023-04-21T11:12:11.620Z,99759.00
2023-04-21T11:14:41.138Z,99768.88
2023-04-21T11:17:12.976Z,99775.78
2023-04-21T11:19:40.609Z,99775.91
2023-04-21T11:22:07.986Z,99765.13
2023-04-21T11:24:35.095Z,99769.13
2023-04-21T11:27:02.412Z,99770.38
2023-04-21T11:29:29.923Z,99755.25
2023-04-21T11:31:59.091Z,99745.00
2023-04-21T11:34:26.663Z,99752.69
2023-04-21T11:36:54.164Z,99747.59
2023-04-21T11:39:22.352Z,99755.84
2023-04-21T11:41:52.713Z,99758.03
2023-04-21T11:44:34.052Z,99752.28
2023-04-21T11:47:12.151Z,99739.28
2023-04-21T11:49:46.506Z,99740.81
2023-04-21T11:52:27.943Z,99731.88
2023-04-21T11:55:06.628Z,99731.06
2023-04-21T11:57:34.390Z,99674.69
2023-04-21T12:00:03.720Z,99724.81
2023-04-21T12:02:35.529Z,99716.97
2023-04-21T12:05:11.243Z,99720.69
2023-04-21T12:07:42.713Z,99716.41
2023-04-21T12:10:29.961Z,99722.25
2023-04-21T12:12:57.482Z,99712.88
2023-04-21T12:15:24.531Z,99698.16
2023-04-21T12:17:54.045Z,99700.19
2023-04-21T12:20:23.490Z,99710.53
2023-04-21T12:22:51.033Z,99699.22
2023-04-21T12:25:18.508Z,99688.06
2023-04-21T12:27:50.227Z,99647.19
2023-04-21T12:30:17.392Z,99643.84
2023-04-21T12:32:44.771Z,99638.59
2023-04-21T12:35:11.945Z,99685.19
2023-04-21T12:37:39.061Z,99697.78
2023-04-21T12:40:08.063Z,99681.88
2023-04-21T12:42:37.504Z,99641.72
2023-04-21T12:45:06.597Z,99705.16
2023-04-21T12:47:34.742Z,99688.84
2023-04-21T12:50:01.907Z,99697.69
2023-04-21T12:52:32.530Z,99698.34
2023-04-21T12:54:59.697Z,99691.84
2023-04-21T12:57:27.001Z,99677.38
2023-04-21T12:59:54.127Z,99692.34
2023-04-21T13:02:21.276Z,99689.13
2023-04-21T13:04:48.471Z,99687.75
2023-04-21T13:07:16.399Z,99682.63
2023-04-21T13:09:43.754Z,99682.75
2023-04-21T13:12:10.715Z,99678.34
2023-04-21T13:14:37.713Z,99669.59
2023-04-21T13:17:05.416Z,99666.31
2023-04-21T13:19:32.698Z,99640.22
2023-04-21T13:22:00.064Z,99656.72
2023-04-21T13:24:27.313Z,99639.38
2023-04-21T13:26:54.777Z,99637.47
2023-04-21T13:29:21.844Z,99656.56
2023-04-21T13:31:48.853Z,99643.66
2023-04-21T13:34:15.954Z,99648.09
2023-04-21T13:36:43.056Z,99646.41
2023-04-21T13:39:11.846Z,99639.38
2023-04-21T13:41:39.032Z,99620.16
2023-04-21T13:44:06.373Z,99641.81
2023-04-21T13:46:33.694Z,99639.13
2023-04-21T13:49:01.009Z,99626.97
2023-04-21T13:51:30.170Z,99631.34
2023-04-21T13:53:57.258Z,99631.47
2023-04-21T13:56:24.756Z,99619.38
2023-04-21T13:58:51.945Z,99605.44
2023-04-21T14:01:21.373Z,99600.03
2023-04-21T14:03:49.345Z,99612.19
2023-04-21T14:06:17.410Z,99618.28
2023-04-21T14:08:44.550Z,99599.06
2023-04-21T14:11:11.572Z,99608.59
2023-04-21T14:13:47.762Z,99611.47
2023-04-21T14:16:25.785Z,99614.09
2023-04-21T14:18:52.860Z,99618.44
2023-04-21T14:21:19.920Z,99609.69
2023-04-21T14:23:47.065Z,99615.78
2023-04-21T14:26:14.210Z,99612.31
2023-04-21T14:28:41.801Z,99609.72
2023-04-21T14:31:09.018Z,99612.31
2023-04-21T14:33:36.177Z,99590.66
2023-04-21T14:36:03.631Z,99603.84
2023-04-21T14:38:30.941Z,99602.19
2023-04-21T14:40:58.035Z,99606.56
2023-04-21T14:43:25.140Z,99615.34
2023-04-21T14:45:52.909Z,99592.84
2023-04-21T14:48:21.301Z,99580.84
2023-04-21T14:50:48.593Z,99570.44
2023-04-21T14:53:15.776Z,99601.59
2023-04-21T14:55:42.921Z,99606.84
2023-04-21T14:58:10.038Z,99604.16
2023-04-21T15:00:38.829Z,99616.41
2023-04-21T15:03:05.952Z,99605.94
2023-04-21T15:05:34.840Z,99602.59
2023-04-21T15:08:02.449Z,99606.16
2023-04-21T15:10:31.082Z,99605.50
2023-04-21T15:12:58.620Z,99613.47
2023-04-21T15:15:25.745Z,99590.97
2023-04-21T15:17:52.763Z,99595.44
2023-04-21T15:20:26.622Z,99614.72
2023-04-21T15:22:59.922Z,99610.44
2023-04-21T15:25:27.141Z,99613.00
2023-04-21T15:27:54.113Z,99600.97
2023-04-21T15:30:21.213Z,99612.44
2023-04-21T15:32:48.308Z,99628.19
2023-04-21T15:35:15.464Z,99566.78
2023-04-21T15:37:42.661Z,99623.22
2023-04-21T15:40:10.308Z,99619.81
2023-04-21T15:42:37.360Z,99615.53
2023-04-21T15:45:04.721Z,99604.50
2023-04-21T15:47:33.729Z,99622.81
2023-04-21T15:50:00.849Z,99615.78
2023-04-21T15:52:28.617Z,99607.97
2023-04-21T15:54:55.765Z,99607.16
2023-04-21T15:57:24.322Z,99622.78
2023-04-21T15:59:51.445Z,99619.28
2023-04-21T16:02:18.653Z,99627.13
2023-04-21T16:04:46.214Z,99614.91
2023-04-21T16:07:13.672Z,99588.00
2023-04-21T16:09:41.367Z,99603.66
2023-04-21T16:12:10.462Z,99610.63
2023-04-21T16:14:53.423Z,99625.50
2023-04-21T16:17:25.630Z,99615.19
2023-04-21T16:19:53.880Z,99622.06
2023-04-21T16:22:21.056Z,99616.03
2023-04-21T16:24:48.680Z,99631.75
2023-04-21T16:27:15.983Z,99628.28
2023-04-21T16:29:43.303Z,99627.50
2023-04-21T16:32:10.590Z,99614.50
2023-04-21T16:34:37.977Z,99643.19
2023-04-21T16:37:05.484Z,99641.47
2023-04-21T16:39:32.593Z,99624.13
2023-04-21T16:41:59.878Z,99618.03
2023-04-21T16:44:26.911Z,99634.56
2023-04-21T16:46:54.192Z,99633.69
2023-04-21T16:49:21.351Z,99638.16
2023-04-21T16:51:48.522Z,99622.59
2023-04-21T16:54:15.600Z,99629.56
2023-04-21T16:56:42.613Z,99633.97
2023-04-21T16:59:09.618Z,99590.59
2023-04-21T17:01:36.833Z,99608.81
2023-04-21T17:04:04.104Z,99616.66
2023-04-21T17:06:32.041Z,99632.31
2023-04-21T17:09:01.931Z,99617.63
2023-04-21T17:11:30.102Z,99630.66
2023-04-21T17:13:57.163Z,99629.81
2023-04-21T17:16:24.418Z,99622.84
2023-04-21T17:18:51.457Z,99636.81
2023-04-21T17:21:18.458Z,99622.06
2023-04-21T17:23:45.484Z,99635.97
2023-04-21T17:26:13.261Z,99625.56
2023-04-21T17:28:40.546Z,99616.06
2023-04-21T17:31:14.526Z,99634.31
2023-04-21T17:33:44.353Z,99626.53
2023-04-21T17:36:12.444Z,99617.00
2023-04-21T17:38:39.984Z,99604.88
2023-04-21T17:41:07.833Z,99616.22
2023-04-21T17:43:34.880Z,99614.53
2023-04-21T17:46:02.027Z,99613.66
2023-04-21T17:48:29.117Z,99606.72
2023-04-21T17:50:56.179Z,99608.50
2023-04-21T17:53:23.264Z,99610.28
2023-04-21T17:55:51.106Z,99598.16
2023-04-21T17:58:18.655Z,99599.97
2023-04-21T18:00:45.638Z,99555.69
2023-04-21T18:03:12.863Z,99586.97
2023-04-21T18:05:40.312Z,99597.44
2023-04-21T18:08:07.685Z,99610.50
2023-04-21T18:10:35.982Z,99600.97
2023-04-21T18:13:03.217Z,99600.16
2023-04-21T18:15:30.569Z,99608.88
2023-04-21T18:17:57.702Z,99608.91
2023-04-21T18:20:25.064Z,99606.31
2023-04-21T18:22:54.184Z,99581.13
2023-04-21T18:25:38.334Z,99584.63
2023-04-21T18:28:08.308Z,99585.50
2023-04-21T18:30:35.383Z,99602.91
2023-04-21T18:33:02.557Z,99603.81
2023-04-21T18:35:29.717Z,99592.50
2023-04-21T18:37:56.813Z,99597.75
2023-04-21T18:40:24.095Z,99587.34
2023-04-21T18:42:51.111Z,99596.00
2023-04-21T18:45:18.674Z,99583.84
2023-04-21T18:47:48.672Z,99563.91
2023-04-21T18:50:15.809Z,99570.00
2023-04-21T18:52:42.849Z,99524.81
2023-04-21T18:55:10.328Z,99576.97
2023-04-21T18:57:37.419Z,99570.91
2023-04-21T19:00:05.101Z,99585.72
2023-04-21T19:02:33.787Z,99589.16
2023-04-21T19:05:01.324Z,99572.63
2023-04-21T19:07:31.813Z,99529.19
2023-04-21T19:09:58.789Z,99559.59
2023-04-21T19:12:27.074Z,99570.03
2023-04-21T19:14:54.375Z,99582.19
2023-04-21T19:17:22.051Z,99581.34
2023-04-21T19:19:49.663Z,99570.06
2023-04-21T19:22:16.964Z,99560.50
2023-04-21T19:24:43.993Z,99563.97
2023-04-21T19:27:11.204Z,99576.16
2023-04-21T19:29:38.392Z,99574.41
2023-04-21T19:32:05.667Z,99532.72
2023-04-21T19:34:32.766Z,99573.53
2023-04-21T19:37:00.010Z,99565.72
2023-04-21T19:39:27.930Z,99569.22
2023-04-21T19:41:56.096Z,99574.44
2023-04-21T19:44:23.153Z,99571.81
2023-04-21T19:46:51.275Z,99458.91
2023-04-21T19:49:18.376Z,99560.53
2023-04-21T19:51:45.446Z,99563.16
2023-04-21T19:54:12.657Z,99567.50
2023-04-21T19:56:40.802Z,99518.84
2023-04-21T19:59:08.080Z,99504.94
2023-04-21T20:01:35.287Z,99524.94
2023-04-21T20:04:03.755Z,99565.75
2023-04-21T20:06:32.119Z,99499.69
2023-04-21T20:08:59.526Z,99557.94
2023-04-21T20:11:28.956Z,99562.28
2023-04-21T20:13:56.523Z,99548.38
2023-04-21T20:16:26.312Z,99562.28
2023-04-21T20:18:58.413Z,99555.34
2023-04-21T20:21:25.708Z,99564.91
2023-04-21T20:23:52.779Z,99558.78
2023-04-21T20:26:19.850Z,99563.97
2023-04-21T20:28:47.489Z,99569.19
2023-04-21T20:31:14.802Z,99568.31
2023-04-21T20:33:41.896Z,99569.19
2023-04-21T20:36:08.878Z,99557.03
2023-04-21T20:38:35.996Z,99557.91
2023-04-21T20:41:03.453Z,99553.50
2023-04-21T20:43:34.267Z,99563.09
2023-04-21T20:46:01.900Z,99566.53
2023-04-21T20:48:29.219Z,99525.69
2023-04-21T20:50:56.542Z,99568.25
2023-04-21T20:53:24.059Z,99511.75
2023-04-21T20:55:51.546Z,99565.66
2023-04-21T20:58:18.816Z,99569.97
2023-04-21T21:00:45.914Z,99570.88
2023-04-21T21:03:13.931Z,99557.84
2023-04-21T21:05:41.553Z,99568.28
2023-04-21T21:08:09.201Z,99566.53
2023-04-21T21:10:36.421Z,99557.84
2023-04-21T21:13:03.979Z,99555.25
2023-04-21T21:15:31.265Z,99552.63
2023-04-21T21:17:58.837Z,99556.09
2023-04-21T21:20:26.182Z,99560.41
2023-04-21T21:22:53.388Z,99560.41
2023-04-21T21:25:20.494Z,99541.28
2023-04-21T21:27:48.379Z,99549.13
2023-04-21T21:30:15.574Z,99555.22
2023-04-21T21:32:42.911Z,99543.03
2023-04-21T21:35:10.529Z,99554.31
2023-04-21T21:37:38.256Z,99542.16
2023-04-21T21:40:07.164Z,99561.28
2023-04-21T21:42:34.409Z,99556.09
2023-04-21T21:45:02.126Z,99556.97
2023-04-21T21:47:40.284Z,99557.84
2023-04-21T21:50:09.492Z,99558.75
2023-04-21T21:52:36.501Z,99550.00
2023-04-21T21:55:03.680Z,99550.88
2023-04-21T21:57:33.248Z,99556.09
2023-04-21T22:00:00.654Z,99550.00
2023-04-21T22:02:29.131Z,99548.25
2023-04-21T22:04:56.621Z,99552.59
2023-04-21T22:07:25.165Z,99551.72
2023-04-21T22:09:52.739Z,99536.06
2023-04-21T22:12:19.884Z,99540.41
2023-04-21T22:14:47.209Z,99551.66
2023-04-21T22:17:14.605Z,99557.72
2023-04-21T22:19:41.939Z,99557.72
2023-04-21T22:22:08.934Z,99442.06
2023-04-21T22:24:35.905Z,99557.72
2023-04-21T22:27:03.060Z,99555.97
2023-04-21T22:29:31.027Z,99559.41
2023-04-21T22:31:58.580Z,99555.03
2023-04-21T22:34:25.641Z,99537.63
2023-04-21T22:36:53.537Z,99559.34
2023-04-21T22:39:21.051Z,99561.91
2023-04-21T22:41:48.097Z,99552.38
2023-04-21T22:44:15.052Z,99559.28
2023-04-21T22:46:42.920Z,99560.13
2023-04-21T22:49:10.048Z,99558.34
2023-04-21T22:51:37.054Z,99557.41
2023-04-21T22:54:04.391Z,99544.34
2023-04-21T22:56:31.695Z,99548.66
2023-04-21T22:58:58.809Z,99563.38
2023-04-21T23:01:25.893Z,99534.66
2023-04-21T23:03:53.068Z,99548.47
2023-04-21T23:06:20.227Z,99545.00
2023-04-21T23:08:47.285Z,99547.53
2023-04-21T23:11:14.476Z,99551.00
2023-04-21T23:13:41.532Z,99552.69
2023-04-21T23:16:08.559Z,99553.44
2023-04-21T23:18:36.041Z,99563.81
2023-04-21T23:21:03.251Z,99541.19
2023-04-21T23:23:30.314Z,99562.81
2023-04-21T23:25:57.343Z,99558.44
2023-04-21T23:28:24.635Z,99550.59
2023-04-21T23:30:51.763Z,99513.22
2023-04-21T23:33:19.093Z,99548.06
2023-04-21T23:35:46.148Z,99535.94
2023-04-21T23:38:13.212Z,99476.00
2023-04-21T23:40:40.377Z,99538.66
2023-04-21T23:43:07.769Z,99543.84
2023-04-21T23:45:35.040Z,99537.75
2023-04-21T23:48:02.207Z,99547.19
2023-04-21T23:50:29.354Z,99491.47
2023-04-21T23:52:56.580Z,99541.84
2023-04-21T23:55:23.641Z,99547.91
2023-04-21T23:57:50.587Z,99543.59
